Time;durP1;ratioP1;P1;durP2;ratioP2;P2;SDS_P1;SDS_P2;PMS_P1;PMS_P2;Temp;Humidity;BMP_temperature;BMP_pressure;BME280_temperature;BME280_humidity;BME280_pressure;Samples;Min_cycle;Max_cycle;Signal;HPM_P1;HPM_P2
2022/05/06 00:00:52;;;;;;;12.15;3.08;;;;;;;15.19;57.33;100574.97;5119302;28;20264;-71
2022/05/06 00:03:17;;;;;;;8.30;2.65;;;;;;;14.99;57.99;100579.84;5120469;28;20069;-71
2022/05/06 00:05:42;;;;;;;9.38;2.75;;;;;;;14.87;59.24;100582.03;5119663;28;20027;-71
2022/05/06 00:11:31;;;;;;;4.78;2.70;;;;;;;14.79;60.03;100587.38;5119501;28;20328;-71
2022/05/06 00:13:57;;;;;;;7.22;2.30;;;;;;;14.77;59.92;100591.22;5120355;28;20294;-71
2022/05/06 00:16:23;;;;;;;13.02;3.50;;;;;;;14.78;60.07;100590.22;5119276;28;20046;-71
2022/05/06 00:18:50;;;;;;;9.73;2.90;;;;;;;14.85;59.77;100580.56;5119408;27;20159;-71
2022/05/06 00:21:16;;;;;;;6.38;2.72;;;;;;;14.98;58.84;100591.53;5119612;28;20036;-71
2022/05/06 00:23:42;;;;;;;8.57;3.47;;;;;;;14.85;59.30;100589.38;5119203;28;20055;-71
2022/05/06 00:26:08;;;;;;;5.10;2.53;;;;;;;14.78;59.38;100591.06;5120097;28;20337;-71
2022/05/06 00:28:34;;;;;;;9.00;2.75;;;;;;;14.80;59.35;100590.88;5118967;28;20233;-71
2022/05/06 00:31:01;;;;;;;7.68;2.80;;;;;;;14.71;59.36;100592.72;5119399;28;20020;-71
2022/05/06 00:33:27;;;;;;;5.88;2.83;;;;;;;14.76;59.01;100595.72;5119697;28;20031;-71
2022/05/06 00:35:56;;;;;;;4.40;2.67;;;;;;;14.97;59.56;100600.53;5119203;27;20049;-71
2022/05/06 00:38:22;;;;;;;7.95;2.88;;;;;;;14.85;60.43;100602.72;5118974;28;20036;-71
2022/05/06 00:40:47;;;;;;;5.13;3.00;;;;;;;14.81;60.12;100598.72;5100633;28;20023;-71
2022/05/06 00:43:13;;;;;;;7.93;2.75;;;;;;;14.82;60.10;100613.72;5118965;28;20401;-71
2022/05/06 00:45:53;;;;;;;8.32;2.70;;;;;;;14.75;60.53;100606.56;5118862;28;20024;-71
2022/05/06 00:48:25;;;;;;;6.43;3.00;;;;;;;14.72;60.47;100606.91;5119054;28;20031;-71
2022/05/06 00:50:51;;;;;;;11.55;3.17;;;;;;;14.67;60.43;100594.91;5118780;28;20031;-71
2022/05/06 00:53:17;;;;;;;6.85;3.08;;;;;;;14.81;60.94;100608.56;5100745;28;20023;-71
2022/05/06 00:55:43;;;;;;;8.90;3.08;;;;;;;14.69;61.77;100611.56;5118521;28;20087;-71
2022/05/06 00:58:10;;;;;;;8.52;2.95;;;;;;;14.56;61.73;100611.19;5118547;28;20051;-71
2022/05/06 01:00:35;;;;;;;8.02;3.45;;;;;;;14.46;61.79;100613.19;5119317;28;20041;-71
2022/05/06 01:03:01;;;;;;;9.13;3.55;;;;;;;14.21;62.17;100582.19;5118336;28;20059;-71
2022/05/06 01:05:27;;;;;;;4.57;3.03;;;;;;;14.37;62.25;100608.84;5118575;28;20069;-71
2022/05/06 01:07:53;;;;;;;7.80;3.35;;;;;;;14.43;61.79;100604.69;5119306;28;20041;-71
2022/05/06 01:10:20;;;;;;;5.93;2.97;;;;;;;14.48;62.46;100613.03;5118121;27;20037;-71
2022/05/06 01:12:45;;;;;;;9.95;3.97;;;;;;;14.34;63.41;100620.66;5118559;27;20055;-71
2022/05/06 01:15:20;;;;;;;5.85;3.30;;;;;;;14.27;63.76;100614.31;5119414;28;20273;-71
2022/05/06 01:17:47;;;;;;;6.38;3.30;;;;;;;14.32;63.89;100619.97;5118253;28;20132;-71
2022/05/06 01:20:16;;;;;;;13.20;3.53;;;;;;;14.29;63.47;100622.97;5117989;28;20035;-72
2022/05/06 01:22:47;;;;;;;5.57;3.10;;;;;;;14.21;64.08;100612.31;5118666;27;20036;-71
2022/05/06 01:25:13;;;;;;;10.35;3.83;;;;;;;14.19;64.39;100605.47;5100042;28;20032;-71
2022/05/06 01:27:44;;;;;;;7.30;3.60;;;;;;;14.30;63.75;100605.16;5117998;27;20036;-71
2022/05/06 01:30:26;;;;;;;9.18;3.30;;;;;;;14.28;63.82;100607.16;5117410;28;20043;-71
2022/05/06 01:32:52;;;;;;;8.70;3.38;;;;;;;14.20;64.00;100605.31;5118149;28;20036;-71
2022/05/06 01:35:21;;;;;;;7.90;3.67;;;;;;;14.22;63.92;100597.16;5118724;28;20024;-71
2022/05/06 01:37:49;;;;;;;7.78;3.83;;;;;;;14.26;63.53;100598.50;5117412;28;20039;-71
2022/05/06 01:40:18;;;;;;;11.07;3.83;;;;;;;14.20;63.91;100596.50;5117419;27;20085;-71
2022/05/06 01:42:46;;;;;;;7.90;3.45;;;;;;;14.09;63.75;100604.81;5118773;27;20027;-71
2022/05/06 01:45:15;;;;;;;8.07;3.78;;;;;;;14.06;64.12;100598.81;5099042;28;20031;-71
2022/05/06 01:47:41;;;;;;;10.63;4.10;;;;;;;14.08;64.13;100585.31;5116503;28;20100;-71
2022/05/06 01:50:09;;;;;;;12.13;4.15;;;;;;;14.00;64.20;100588.81;5118059;28;20279;-71
2022/05/06 01:52:37;;;;;;;10.32;3.78;;;;;;;13.92;65.24;100598.59;5118248;28;20236;-71
2022/05/06 01:55:05;;;;;;;6.20;3.78;;;;;;;13.86;65.76;100594.78;5117592;28;20182;-71
2022/05/06 01:57:30;;;;;;;11.15;4.50;;;;;;;13.74;64.65;100572.09;5117693;27;20191;-71
2022/05/06 01:59:56;;;;;;;10.93;4.55;;;;;;;13.96;64.27;100605.28;5118281;28;20106;-71
2022/05/06 02:02:21;;;;;;;7.30;4.43;;;;;;;13.85;64.08;100600.25;5117429;28;20094;-71
2022/05/06 02:07:31;;;;;;;11.70;6.32;;;;;;;13.80;63.49;100599.91;5117592;28;20043;-71
2022/05/06 02:09:57;;;;;;;22.58;8.07;;;;;;;13.65;63.54;100594.38;5117977;28;21231;-71
2022/05/06 02:12:22;;;;;;;12.40;7.32;;;;;;;13.74;62.90;100598.72;5117095;27;20036;-72
2022/05/06 02:14:48;;;;;;;10.70;6.05;;;;;;;13.74;62.35;100596.06;5117360;28;20028;-71
2022/05/06 02:17:13;;;;;;;13.10;6.55;;;;;;;13.80;61.39;100594.59;5118067;28;20062;-71
2022/05/06 02:19:39;;;;;;;12.68;6.40;;;;;;;13.87;61.55;100596.44;5117459;28;20032;-71
2022/05/06 02:22:04;;;;;;;14.07;6.57;;;;;;;13.97;61.46;100605.09;5117719;28;20329;-71
2022/05/06 02:24:30;;;;;;;12.60;6.65;;;;;;;14.03;61.13;100603.63;5098531;28;20317;-71
2022/05/06 02:26:55;;;;;;;13.95;5.90;;;;;;;13.95;61.18;100609.75;5117921;28;20098;-71
2022/05/06 02:29:21;;;;;;;13.65;5.63;;;;;;;13.89;61.72;100598.94;5117193;28;20079;-71
2022/05/06 02:34:30;;;;;;;13.80;5.53;;;;;;;13.81;61.61;100606.91;5115851;28;20125;-71
2022/05/06 02:36:55;;;;;;;13.55;5.68;;;;;;;13.82;61.88;100601.41;5116952;28;20044;-71
2022/05/06 02:39:21;;;;;;;14.05;5.53;;;;;;;13.93;61.88;100602.94;5117483;28;20043;-71
2022/05/06 02:41:47;;;;;;;9.88;5.45;;;;;;;13.74;62.52;100601.38;5119346;28;20225;-71
2022/05/06 02:44:12;;;;;;;12.43;5.13;;;;;;;13.74;62.28;100612.88;5121821;28;20115;-71
2022/05/06 02:46:38;;;;;;;17.15;5.25;;;;;;;13.73;62.49;100613.03;5121769;28;20368;-71
2022/05/06 02:49:03;;;;;;;10.27;4.53;;;;;;;13.76;62.12;100604.72;5121298;27;20032;-71
2022/05/06 02:51:29;;;;;;;10.90;4.47;;;;;;;13.82;61.81;100621.88;5103867;28;20643;-71
2022/05/06 02:53:58;;;;;;;8.23;3.70;;;;;;;13.78;62.19;100616.03;5121292;28;20264;-71
2022/05/06 02:56:24;;;;;;;9.70;3.75;;;;;;;13.78;62.28;100620.53;5121331;28;20031;-71
2022/05/06 02:58:50;;;;;;;9.73;4.68;;;;;;;13.75;62.68;100619.03;5121912;28;20044;-71
2022/05/06 03:01:15;;;;;;;12.60;4.03;;;;;;;13.69;63.26;100625.81;5121854;28;20081;-71
2022/05/06 03:03:41;;;;;;;10.38;4.22;;;;;;;13.65;62.43;100623.66;5120862;28;20229;-71
2022/05/06 03:06:06;;;;;;;10.50;4.35;;;;;;;13.52;62.95;100629.38;5122062;28;20038;-71
2022/05/06 03:08:32;;;;;;;8.23;4.35;;;;;;;13.49;63.43;100621.72;5120739;28;20039;-71
2022/05/06 03:10:59;;;;;;;15.52;4.60;;;;;;;13.46;63.96;100618.53;5120355;28;20037;-73
2022/05/06 03:13:24;;;;;;;8.07;4.00;;;;;;;13.55;63.68;100620.28;5121738;28;20047;-72
2022/05/06 03:15:49;;;;;;;7.93;4.10;;;;;;;13.54;63.20;100627.44;5102499;28;20088;-73
2022/05/06 03:18:15;;;;;;;13.55;5.18;;;;;;;13.50;63.66;100634.03;5103435;27;20138;-73
2022/05/06 03:20:43;;;;;;;16.90;4.90;;;;;;;13.66;63.80;100625.31;5121353;28;20032;-73
2022/05/06 03:23:08;;;;;;;7.28;4.10;;;;;;;13.65;63.76;100627.13;5120326;28;20035;-73
2022/05/06 03:25:34;;;;;;;14.57;4.18;;;;;;;13.56;63.79;100633.41;5120347;28;20068;-73
2022/05/06 03:27:59;;;;;;;17.77;6.28;;;;;;;13.54;63.97;100639.91;5102877;28;20551;-73
2022/05/06 03:30:26;;;;;;;19.38;6.80;;;;;;;13.34;65.03;100640.09;5120580;28;20106;-73
2022/05/06 03:32:52;;;;;;;12.20;5.35;;;;;;;13.53;65.17;100644.38;5121115;28;20260;-72
2022/05/06 03:35:17;;;;;;;18.15;5.75;;;;;;;13.50;65.40;100650.00;5121055;28;20073;-73
2022/05/06 03:37:44;;;;;;;14.02;5.55;;;;;;;13.43;65.43;100635.66;5120193;28;20032;-72
2022/05/06 03:40:10;;;;;;;16.67;4.85;;;;;;;13.45;65.07;100643.47;5102402;28;20107;-72
2022/05/06 03:42:35;;;;;;;10.63;4.53;;;;;;;13.46;65.21;100645.97;5121067;28;20436;-73
2022/05/06 03:45:03;;;;;;;10.27;4.35;;;;;;;13.64;64.82;100644.09;5120387;27;20043;-73
2022/05/06 03:47:29;;;;;;;11.07;5.15;;;;;;;13.73;64.92;100643.13;5120237;28;20313;-73
2022/05/06 03:52:38;;;;;;;14.98;5.68;;;;;;;13.62;66.36;100655.91;5120709;27;20066;-72
2022/05/06 03:55:04;;;;;;;17.35;5.05;;;;;;;13.59;67.00;100658.88;5120844;27;21580;-73
2022/05/06 03:57:30;;;;;;;10.40;5.03;;;;;;;13.64;65.79;100657.41;5119815;28;20228;-72
2022/05/06 03:59:55;;;;;;;10.48;5.05;;;;;;;13.80;65.83;100661.13;5102167;27;20019;-72
2022/05/06 04:02:21;;;;;;;16.88;5.88;;;;;;;13.87;66.44;100665.66;5120037;28;20137;-72
2022/05/06 04:04:47;;;;;;;15.50;8.07;;;;;;;13.77;66.29;100659.63;5119633;28;20566;-73
2022/05/06 04:07:14;;;;;;;17.00;6.80;;;;;;;13.87;65.57;100664.81;5119591;28;20336;-71
2022/05/06 04:09:39;;;;;;;16.50;5.20;;;;;;;14.00;65.64;100662.53;5119620;27;20023;-72
2022/05/06 04:12:05;;;;;;;13.50;5.03;;;;;;;14.24;65.25;100667.09;5120395;28;20019;-71
2022/05/06 04:14:30;;;;;;;14.63;6.00;;;;;;;14.48;63.81;100666.31;5119528;28;20059;-72
2022/05/06 04:16:56;;;;;;;18.27;7.70;;;;;;;14.54;62.73;100661.16;5119365;28;20046;-73
2022/05/06 04:19:21;;;;;;;13.75;6.53;;;;;;;14.66;62.72;100661.72;5120275;28;20352;-73
2022/05/06 04:24:31;;;;;;;14.68;7.35;;;;;;;14.58;62.75;100670.53;5120192;28;20038;-73
2022/05/06 04:26:56;;;;;;;11.75;6.30;;;;;;;14.64;62.82;100669.88;5119258;28;20023;-73
2022/05/06 04:29:21;;;;;;;15.77;6.00;;;;;;;14.75;63.46;100675.88;5119490;28;20086;-71
2022/05/06 04:31:47;;;;;;;12.77;5.60;;;;;;;14.67;62.44;100668.72;5119819;27;20401;-71
2022/05/06 04:34:12;;;;;;;11.20;5.90;;;;;;;14.71;62.64;100675.38;5122056;28;20087;-71
2022/05/06 04:36:39;;;;;;;13.52;5.70;;;;;;;14.81;62.09;100668.03;5104327;28;20030;-71
2022/05/06 04:39:05;;;;;;;12.73;5.78;;;;;;;14.94;62.08;100675.53;5119755;28;20320;-73
2022/05/06 04:41:31;;;;;;;11.80;5.07;;;;;;;15.11;63.42;100681.69;5118027;27;20064;-71
2022/05/06 04:43:57;;;;;;;14.68;5.03;;;;;;;15.12;64.70;100680.69;5118871;27;20268;-71
2022/05/06 04:46:22;;;;;;;10.80;5.82;;;;;;;15.07;63.30;100681.19;5119142;28;20354;-71
2022/05/06 04:48:48;;;;;;;15.85;5.63;;;;;;;14.99;62.87;100666.03;5118909;28;20039;-71
2022/05/06 04:51:13;;;;;;;14.38;6.00;;;;;;;15.17;61.50;100671.19;5119808;28;20084;-71
2022/05/06 04:53:39;;;;;;;14.25;6.10;;;;;;;15.27;61.62;100668.31;5118918;28;20053;-71
2022/05/06 04:56:04;;;;;;;7.47;5.22;;;;;;;15.24;63.18;100680.16;5118961;27;20086;-71
2022/05/06 04:58:30;;;;;;;11.82;5.60;;;;;;;15.11;63.74;100669.19;5119425;28;20387;-71
2022/05/06 05:00:55;;;;;;;13.15;5.82;;;;;;;15.13;62.45;100685.84;5118270;28;20062;-71
2022/05/06 05:03:21;;;;;;;15.73;5.55;;;;;;;15.13;61.98;100683.19;5117912;28;20035;-71
2022/05/06 05:05:50;;;;;;;10.70;5.20;;;;;;;15.21;60.88;100687.69;5119262;28;20031;-71
2022/05/06 05:08:15;;;;;;;14.73;6.28;;;;;;;15.39;59.82;100685.63;5118092;28;20340;-71
2022/05/06 05:10:40;;;;;;;10.95;5.57;;;;;;;15.55;59.52;100685.59;5118554;27;20027;-71
2022/05/06 05:13:06;;;;;;;13.63;5.88;;;;;;;15.79;58.52;100686.59;5119230;28;20028;-71
2022/05/06 05:15:32;;;;;;;19.05;6.22;;;;;;;15.94;57.26;100683.00;5118577;27;20092;-71
2022/05/06 05:17:57;;;;;;;13.38;6.05;;;;;;;16.17;57.37;100683.06;5118619;28;20039;-71
2022/05/06 05:20:23;;;;;;;18.23;6.80;;;;;;;16.20;56.70;100693.41;5101133;28;20039;-71
2022/05/06 05:22:48;;;;;;;16.08;7.15;;;;;;;16.26;57.12;100698.03;5118276;28;20094;-71
2022/05/06 05:25:14;;;;;;;14.13;5.95;;;;;;;16.30;55.04;100687.84;5118709;28;20035;-71
2022/05/06 05:27:40;;;;;;;12.48;6.50;;;;;;;16.27;54.82;100693.53;5118246;28;20039;-71
2022/05/06 05:30:08;;;;;;;11.73;6.25;;;;;;;16.47;55.16;100692.06;5118954;27;20042;-71
2022/05/06 05:32:34;;;;;;;18.80;6.32;;;;;;;16.57;55.52;100694.50;5117714;27;20097;-72
2022/05/06 05:35:00;;;;;;;10.13;6.25;;;;;;;16.75;54.59;100695.09;5117874;28;20733;-72
2022/05/06 05:37:26;;;;;;;21.00;6.95;;;;;;;16.99;54.25;100695.91;5117975;28;20352;-71
2022/05/06 05:39:52;;;;;;;19.42;6.68;;;;;;;17.12;54.27;100694.28;5118246;28;20039;-71
2022/05/06 05:42:27;;;;;;;14.98;6.38;;;;;;;17.13;53.77;100692.44;5117714;28;20051;-71
2022/05/06 05:50:29;;;;;;;13.98;7.50;;;;;;;17.56;53.74;100690.81;5117594;28;20205;-71
2022/05/06 05:52:55;;;;;;;15.13;7.57;;;;;;;17.63;52.69;100693.59;5117591;28;20023;-72
2022/05/06 05:55:21;;;;;;;17.45;7.90;;;;;;;17.76;52.11;100699.19;5118718;27;20053;-71
2022/05/06 05:57:47;;;;;;;20.70;9.07;;;;;;;17.64;52.27;100706.81;5117499;28;20035;-72
2022/05/06 06:00:13;;;;;;;15.55;8.02;;;;;;;17.60;52.05;100710.03;5117322;28;20038;-71
2022/05/06 06:02:39;;;;;;;16.52;8.77;;;;;;;17.61;52.87;100703.66;5118560;27;20051;-71
2022/05/06 06:05:05;;;;;;;21.35;8.32;;;;;;;17.54;53.34;100704.41;5117185;28;20031;-71
2022/05/06 06:07:32;;;;;;;16.13;7.78;;;;;;;17.56;53.03;100705.06;5117428;28;20034;-71
2022/05/06 06:09:57;;;;;;;15.00;7.75;;;;;;;17.74;53.21;100702.06;5117375;28;20030;-71
2022/05/06 06:12:23;;;;;;;17.58;8.00;;;;;;;17.78;53.35;100699.84;5118131;28;20039;-71
2022/05/06 06:14:48;;;;;;;16.70;8.20;;;;;;;17.76;54.37;100694.69;5117293;28;20310;-71
2022/05/06 06:17:13;;;;;;;17.63;7.93;;;;;;;17.83;54.03;100689.41;5117818;28;20322;-71
2022/05/06 06:19:39;;;;;;;20.65;8.60;;;;;;;18.07;52.94;100699.81;5100231;28;20031;-71
2022/05/06 06:22:04;;;;;;;18.23;9.05;;;;;;;17.94;54.17;100691.59;5117019;28;20094;-72
2022/05/06 06:24:30;;;;;;;15.52;9.00;;;;;;;18.21;53.95;100702.66;5117815;28;20045;-72
2022/05/06 06:26:55;;;;;;;17.42;7.60;;;;;;;18.44;52.93;100703.31;5116946;28;20680;-72
2022/05/06 06:29:21;;;;;;;19.30;8.02;;;;;;;18.47;52.74;100695.72;5117171;28;20043;-71
2022/05/06 06:31:46;;;;;;;18.92;7.95;;;;;;;18.49;52.53;100701.75;5117594;28;20061;-71
2022/05/06 06:34:12;;;;;;;16.98;7.88;;;;;;;18.30;53.49;100696.16;5116657;28;20036;-71
2022/05/06 06:36:37;;;;;;;20.08;8.73;;;;;;;18.63;52.51;100705.41;5116873;28;20031;-71
2022/05/06 06:39:03;;;;;;;14.82;8.02;;;;;;;18.82;51.18;100698.63;5117690;28;20038;-72
2022/05/06 06:41:28;;;;;;;18.80;8.23;;;;;;;19.09;50.61;100697.81;5117111;28;20257;-72
2022/05/06 06:43:54;;;;;;;14.15;8.02;;;;;;;19.43;49.01;100694.34;5117147;28;20032;-72
2022/05/06 06:46:19;;;;;;;16.42;8.60;;;;;;;19.48;48.92;100699.13;5118008;28;20031;-72
2022/05/06 06:48:45;;;;;;;18.23;7.85;;;;;;;19.42;48.58;100697.22;5116937;28;20289;-72
2022/05/06 06:51:10;;;;;;;22.25;8.20;;;;;;;19.64;49.22;100701.53;5116908;28;20031;-72
2022/05/06 06:53:36;;;;;;;15.65;8.00;;;;;;;19.72;47.97;100692.47;5117806;28;20054;-71
2022/05/06 06:56:02;;;;;;;19.60;8.13;;;;;;;19.38;49.37;100693.28;5117059;28;20047;-71
2022/05/06 06:58:28;;;;;;;15.35;8.38;;;;;;;19.39;48.92;100689.56;5116728;28;20042;-72
2022/05/06 07:00:54;;;;;;;12.93;8.30;;;;;;;18.79;50.93;100690.94;5117702;28;20050;-73
2022/05/06 07:03:20;;;;;;;11.75;7.72;;;;;;;19.02;50.65;100688.03;5116816;28;20035;-72
2022/05/06 07:13:58;;;;;;;16.02;7.28;;;;;;;18.91;51.90;100678.66;5116950;28;20271;-71
2022/05/06 07:16:24;;;;;;;13.80;7.13;;;;;;;19.50;49.85;100682.81;5117779;28;20019;-72
2022/05/06 07:18:50;;;;;;;15.15;7.50;;;;;;;19.76;48.95;100685.69;5116397;28;20097;-72
2022/05/06 07:21:16;;;;;;;9.82;7.28;;;;;;;19.38;49.26;100658.38;5116918;28;20188;-71
2022/05/06 07:23:41;;;;;;;15.07;7.30;;;;;;;19.57;49.45;100681.03;5117386;28;20057;-71
2022/05/06 07:26:06;;;;;;;20.73;7.50;;;;;;;19.95;48.63;100679.59;5116442;28;20035;-71
2022/05/06 07:28:33;;;;;;;16.48;7.30;;;;;;;20.23;48.32;100675.97;5120048;27;20090;-72
2022/05/06 07:30:58;;;;;;;16.88;7.93;;;;;;;19.48;50.18;100680.31;5121055;28;20038;-71
2022/05/06 07:33:23;;;;;;;14.10;7.50;;;;;;;19.81;48.31;100677.03;5120296;28;20035;-72
2022/05/06 07:35:49;;;;;;;12.48;7.60;;;;;;;20.73;46.67;100674.66;5120494;28;20023;-71
2022/05/06 07:38:14;;;;;;;14.18;7.03;;;;;;;21.10;46.14;100669.72;5102305;28;20068;-72
2022/05/06 07:40:40;;;;;;;14.75;7.35;;;;;;;21.73;44.06;100662.78;5120163;28;20217;-71
2022/05/06 07:43:05;;;;;;;14.77;7.05;;;;;;;21.96;43.64;100662.31;5120189;27;20329;-72
2022/05/06 07:45:31;;;;;;;15.77;7.80;;;;;;;22.19;43.77;100673.44;5120960;27;20035;-72
2022/05/06 07:47:57;;;;;;;17.80;8.40;;;;;;;22.07;44.15;100669.75;5120089;28;20083;-72
2022/05/06 07:50:23;;;;;;;10.15;6.97;;;;;;;22.34;42.97;100662.34;5120034;28;20023;-72
2022/05/06 07:52:50;;;;;;;10.95;6.57;;;;;;;22.40;43.27;100664.19;5121016;28;20035;-72
2022/05/06 07:55:19;;;;;;;17.30;7.43;;;;;;;22.18;44.26;100663.69;5119637;28;20093;-72
2022/05/06 07:57:44;;;;;;;14.45;7.60;;;;;;;22.09;44.44;100666.84;5119311;28;20321;-72
2022/05/06 08:00:10;;;;;;;15.77;7.70;;;;;;;22.01;44.37;100670.56;5119764;27;20024;-72
2022/05/06 08:05:22;;;;;;;12.25;8.27;;;;;;;21.24;45.66;100683.00;5120232;28;20054;-72
2022/05/06 08:07:47;;;;;;;17.50;8.77;;;;;;;20.99;47.14;100677.38;5119674;28;20051;-72
2022/05/06 08:10:14;;;;;;;14.48;8.75;;;;;;;20.86;46.79;100676.56;5119487;27;20047;-71
2022/05/06 08:12:39;;;;;;;15.95;8.70;;;;;;;20.80;47.62;100678.19;5120680;28;20039;-71
2022/05/06 08:15:05;;;;;;;15.10;9.35;;;;;;;20.54;47.97;100680.84;5119752;28;20563;-72
2022/05/06 08:17:30;;;;;;;18.15;9.43;;;;;;;20.71;47.28;100680.25;5101169;28;20028;-71
2022/05/06 08:19:56;;;;;;;15.95;9.00;;;;;;;20.80;48.13;100672.78;5121074;28;20024;-72
2022/05/06 08:25:43;;;;;;;16.48;8.85;;;;;;;21.23;46.72;100673.25;5118196;28;20031;-72
2022/05/06 08:28:09;;;;;;;15.93;9.65;;;;;;;21.26;46.68;100672.84;5120661;28;20027;-72
2022/05/06 08:30:35;;;;;;;15.57;8.85;;;;;;;21.25;47.11;100673.06;5124044;28;20038;-72
2022/05/06 08:33:01;;;;;;;22.20;9.55;;;;;;;20.91;47.77;100680.28;5124058;28;20031;-72
2022/05/06 08:35:27;;;;;;;13.40;9.52;;;;;;;20.63;49.07;100672.38;5123636;28;20359;-71
2022/05/06 08:37:52;;;;;;;15.73;9.07;;;;;;;20.55;50.10;100672.56;5104511;28;20051;-72
2022/05/06 08:40:21;;;;;;;18.88;9.57;;;;;;;20.62;49.23;100656.41;5123254;28;20119;-72
2022/05/06 08:42:48;;;;;;;14.95;9.35;;;;;;;20.76;50.72;100673.41;5123036;28;20043;-72
2022/05/06 08:50:56;;;;;;;16.67;9.10;;;;;;;20.69;49.41;100654.56;5123403;28;20347;-72
2022/05/06 08:53:27;;;;;;;17.38;10.43;;;;;;;20.72;49.12;100660.38;5123591;28;20875;-72
2022/05/06 08:55:55;;;;;;;18.23;10.18;;;;;;;20.73;49.21;100670.09;5123152;28;20325;-72
2022/05/06 08:58:22;;;;;;;18.80;9.85;;;;;;;20.40;50.62;100663.84;5104603;28;20067;-72
2022/05/06 09:00:48;;;;;;;14.02;9.63;;;;;;;20.40;50.36;100658.47;5123436;28;20031;-71
2022/05/06 09:03:15;;;;;;;14.88;9.18;;;;;;;20.70;49.18;100653.53;5123286;28;20414;-72
2022/05/06 09:05:52;;;;;;;15.70;9.00;;;;;;;20.86;48.96;100645.09;5123006;28;20396;-72
2022/05/06 09:08:17;;;;;;;17.08;9.85;;;;;;;20.78;47.69;100658.72;5121863;28;20042;-72
2022/05/06 09:10:58;;;;;;;19.00;10.55;;;;;;;20.87;48.50;100653.97;5122359;28;20028;-72
2022/05/06 09:13:25;;;;;;;19.38;10.13;;;;;;;20.93;48.35;100653.97;5121419;27;20379;-72
2022/05/06 09:18:37;;;;;;;16.65;9.07;;;;;;;20.66;48.65;100647.72;5123139;28;20039;-72
2022/05/06 09:21:10;;;;;;;16.73;8.82;;;;;;;20.99;47.97;100646.94;5122564;28;20314;-71
2022/05/06 09:23:35;;;;;;;19.40;9.38;;;;;;;21.30;46.61;100641.75;5122914;28;20034;-72
2022/05/06 09:26:01;;;;;;;15.38;9.32;;;;;;;21.25;46.18;100640.72;5122852;28;20031;-72
2022/05/06 09:28:29;;;;;;;20.88;9.48;;;;;;;21.62;46.33;100637.31;5122455;28;20036;-72
2022/05/06 09:31:04;;;;;;;18.02;9.45;;;;;;;21.79;45.86;100631.44;5104356;28;20027;-72
2022/05/06 09:33:32;;;;;;;15.18;9.57;;;;;;;22.02;45.04;100622.88;5123261;28;20051;-72
2022/05/06 09:35:58;;;;;;;16.27;9.05;;;;;;;22.32;45.62;100625.84;5122347;28;20072;-72
2022/05/06 09:38:25;;;;;;;18.95;10.05;;;;;;;22.04;45.16;100610.03;5122446;28;20032;-72
2022/05/06 09:40:51;;;;;;;20.15;9.82;;;;;;;22.06;45.27;100616.03;5122497;28;20182;-72
2022/05/06 09:43:18;;;;;;;16.55;9.48;;;;;;;21.84;46.67;100616.28;5122035;28;20327;-72
2022/05/06 09:45:44;;;;;;;17.15;9.02;;;;;;;21.84;46.40;100605.50;5122686;28;20024;-72
2022/05/06 09:48:14;;;;;;;16.73;8.23;;;;;;;21.97;48.24;100605.47;5122311;28;20042;-72
2022/05/06 09:50:42;;;;;;;14.80;8.55;;;;;;;22.25;46.50;100607.00;5121841;27;20036;-72
2022/05/06 09:53:10;;;;;;;11.60;8.93;;;;;;;22.50;46.07;100605.16;5122374;28;20031;-72
2022/05/06 09:55:38;;;;;;;16.40;8.15;;;;;;;22.20;47.19;100596.84;5122140;28;20036;-72
2022/05/06 09:58:04;;;;;;;14.85;8.40;;;;;;;22.51;46.29;100596.00;5121567;28;20046;-72
2022/05/06 10:00:30;;;;;;;11.93;8.02;;;;;;;22.67;44.59;100588.41;5122094;28;20098;-72
2022/05/06 10:02:57;;;;;;;11.50;6.47;;;;;;;22.84;43.30;100587.66;5122065;28;20036;-72
2022/05/06 10:05:27;;;;;;;11.88;7.30;;;;;;;22.52;44.72;100577.94;5122025;28;20026;-72
2022/05/06 10:07:57;;;;;;;11.38;6.43;;;;;;;22.49;42.50;100579.22;5121930;28;20035;-72
2022/05/06 10:10:28;;;;;;;13.85;6.93;;;;;;;21.92;46.25;100570.22;5122226;28;20027;-72
2022/05/06 10:13:03;;;;;;;11.50;7.05;;;;;;;22.47;46.35;100578.59;5121388;28;20035;-72
2022/05/06 10:15:30;;;;;;;8.70;6.20;;;;;;;22.12;45.75;100562.03;5122116;28;20074;-72
2022/05/06 10:17:55;;;;;;;8.45;5.80;;;;;;;21.83;46.16;100571.50;5122207;28;20031;-72
2022/05/06 10:20:45;;;;;;;6.53;4.15;;;;;;;21.19;42.46;100571.50;5121299;28;20059;-72
2022/05/06 10:23:15;;;;;;;12.65;6.07;;;;;;;21.52;48.46;100564.16;5111057;28;20047;-71
2022/05/06 10:25:41;;;;;;;7.85;4.78;;;;;;;21.97;44.47;100558.78;5121987;28;20084;-72
2022/05/06 10:34:12;;;;;;;8.68;3.90;;;;;;;21.51;43.28;100542.81;5121554;28;20033;-72
2022/05/06 10:36:46;;;;;;;6.07;3.80;;;;;;;21.33;40.76;100549.75;5121727;28;20317;-72
2022/05/06 10:39:21;;;;;;;7.57;3.80;;;;;;;21.29;40.33;100547.69;5121472;28;20280;-72
2022/05/06 10:42:09;;;;;;;7.75;4.70;;;;;;;21.26;43.16;100540.03;5121470;28;20090;-71
2022/05/06 10:44:50;;;;;;;6.80;4.80;;;;;;;21.64;42.25;100540.06;5120520;28;20047;-72
2022/05/06 10:47:15;;;;;;;10.18;4.25;;;;;;;21.95;42.43;100532.03;5121728;28;20049;-72
2022/05/06 10:49:46;;;;;;;10.30;4.55;;;;;;;22.23;40.25;100534.38;5121288;28;20118;-72
2022/05/06 10:52:24;;;;;;;5.47;3.80;;;;;;;22.37;40.23;100527.00;5121445;28;20036;-72
2022/05/06 10:54:52;;;;;;;10.63;4.15;;;;;;;22.22;41.62;100529.19;5121550;28;20051;-72
2022/05/06 10:57:23;;;;;;;8.95;4.32;;;;;;;22.20;39.49;100523.19;5120755;28;20158;-72
2022/05/06 10:59:51;;;;;;;5.75;3.33;;;;;;;22.32;36.22;100512.50;5121345;28;20321;-72
2022/05/06 11:02:20;;;;;;;8.80;3.60;;;;;;;22.30;38.92;100505.47;5123608;28;20039;-72
2022/05/06 11:04:57;;;;;;;9.30;3.80;;;;;;;22.35;39.00;100510.19;5125211;28;20031;-72
2022/05/06 11:07:23;;;;;;;8.70;3.40;;;;;;;22.62;37.51;100510.78;5125424;28;20067;-72
2022/05/06 11:09:49;;;;;;;9.07;3.42;;;;;;;22.55;38.69;100504.63;5125132;28;20039;-72
2022/05/06 11:12:37;;;;;;;17.63;3.78;;;;;;;22.25;39.12;100508.00;5124996;28;20039;-72
2022/05/06 11:15:05;;;;;;;8.85;3.53;;;;;;;22.20;40.14;100501.59;5125263;28;20306;-72
2022/05/06 11:17:32;;;;;;;7.75;3.55;;;;;;;22.41;38.80;100503.09;5125327;28;20057;-72
2022/05/06 11:19:59;;;;;;;5.00;2.80;;;;;;;21.93;31.34;100506.34;5124668;28;20047;-71
2022/05/06 11:22:25;;;;;;;4.47;2.83;;;;;;;22.34;32.33;100492.34;5125156;28;20084;-72
2022/05/06 11:24:57;;;;;;;3.90;2.28;;;;;;;22.38;33.91;100485.47;5125152;28;20064;-72
2022/05/06 11:27:23;;;;;;;4.43;2.58;;;;;;;22.55;30.84;100489.25;5124723;28;20048;-72
2022/05/06 11:29:56;;;;;;;5.03;2.55;;;;;;;22.47;33.62;100484.16;5125447;28;20035;-72
2022/05/06 11:32:25;;;;;;;5.80;3.00;;;;;;;21.71;32.91;100476.16;5125062;28;20035;-72
2022/05/06 11:35:01;;;;;;;7.30;2.67;;;;;;;21.48;32.73;100478.59;5124414;27;20084;-71
2022/05/06 11:37:29;;;;;;;7.10;2.88;;;;;;;21.66;33.73;100478.69;5125002;28;20050;-71
2022/05/06 11:42:40;;;;;;;6.38;2.70;;;;;;;21.84;34.93;100480.66;5123209;28;20030;-72
2022/05/06 11:47:50;;;;;;;7.38;3.50;;;;;;;21.73;36.68;100478.66;5121217;28;20035;-72
2022/05/06 11:50:16;;;;;;;7.50;2.72;;;;;;;21.95;35.35;100486.19;5125524;28;20028;-72
2022/05/06 11:52:45;;;;;;;5.63;3.03;;;;;;;21.65;34.20;100472.47;5125865;28;20031;-72
2022/05/06 11:55:11;;;;;;;8.52;3.10;;;;;;;21.94;34.90;100472.94;5125511;28;20024;-72
2022/05/06 11:57:39;;;;;;;6.88;2.55;;;;;;;21.76;34.10;100468.25;5125455;28;20043;-71
2022/05/06 12:00:06;;;;;;;3.42;2.53;;;;;;;21.75;33.97;100450.44;5125344;28;20047;-72
2022/05/06 12:02:31;;;;;;;5.43;3.15;;;;;;;21.37;35.05;100463.09;5125359;28;20081;-72
2022/05/06 12:04:57;;;;;;;7.75;2.78;;;;;;;21.40;35.22;100449.19;5106955;28;20239;-71
2022/05/06 12:07:45;;;;;;;4.57;2.53;;;;;;;21.83;35.84;100452.03;5125346;28;20035;-72
2022/05/06 12:10:34;;;;;;;3.45;2.63;;;;;;;21.79;36.19;100454.34;5123195;28;20047;-72
2022/05/06 12:13:07;;;;;;;5.07;2.70;;;;;;;21.95;34.18;100444.94;5121304;28;20314;-72